Time;durP1;ratioP1;P1;durP2;ratioP2;P2;SDS_P1;SDS_P2;PMS_P1;PMS_P2;Temp;Humidity;BMP_temperature;BMP_pressure;BME280_temperature;BME280_humidity;BME280_pressure;Samples;Min_cycle;Max_cycle;Signal;HPM_P1;HPM_P2
2023/05/01 00:01:09;;;;;;;;;;;9.70;99.90;;;;;;5103831;28;19966;-69
2023/05/01 00:03:35;;;;;;;;;;;9.70;99.90;;;;;;5103562;28;20197;-71
2023/05/01 00:06:03;;;;;;;;;;;9.60;99.90;;;;;;5103053;28;20124;-69
2023/05/01 00:08:30;;;;;;;;;;;9.50;99.90;;;;;;5103559;28;19920;-70
2023/05/01 00:10:57;;;;;;;;;;;9.50;99.90;;;;;;5103413;28;19927;-71
2023/05/01 00:13:23;;;;;;;;;;;9.50;99.90;;;;;;5103372;28;19983;-70
2023/05/01 00:15:52;;;;;;;;;;;9.50;99.90;;;;;;5103444;28;20204;-70
2023/05/01 00:18:19;;;;;;;;;;;9.50;99.90;;;;;;5102919;28;20112;-69
2023/05/01 00:20:46;;;;;;;;;;;9.50;99.90;;;;;;5103480;28;20128;-69
2023/05/01 00:23:12;;;;;;;;;;;9.40;99.90;;;;;;5103499;28;19982;-70
2023/05/01 00:25:39;;;;;;;;;;;9.40;99.90;;;;;;5103141;28;19982;-71
2023/05/01 00:28:06;;;;;;;;;;;9.40;99.90;;;;;;5102995;28;19926;-71
2023/05/01 00:30:33;;;;;;;;;;;9.30;99.90;;;;;;5103467;28;19983;-70
2023/05/01 00:33:01;;;;;;;;;;;9.30;99.90;;;;;;5103420;28;19920;-70
2023/05/01 00:35:29;;;;;;;;;;;9.30;99.90;;;;;;5103345;28;19926;-71
2023/05/01 00:37:56;;;;;;;;;;;9.20;99.90;;;;;;5102380;28;19920;-69
2023/05/01 00:40:22;;;;;;;;;;;9.20;99.90;;;;;;5103290;28;19955;-70
2023/05/01 00:42:49;;;;;;;;;;;9.20;99.90;;;;;;5102962;28;20276;-70
2023/05/01 00:45:16;;;;;;;;;;;9.10;99.90;;;;;;5103011;28;19999;-70
2023/05/01 00:47:42;;;;;;;;;;;9.10;99.90;;;;;;5102651;28;19920;-70
2023/05/01 00:50:10;;;;;;;;;;;9.10;99.90;;;;;;5103331;28;20112;-69
2023/05/01 00:52:38;;;;;;;;;;;9.10;99.90;;;;;;5105877;28;19920;-70
2023/05/01 00:55:05;;;;;;;;;;;9.00;99.90;;;;;;5103982;28;19961;-70
2023/05/01 00:57:32;;;;;;;;;;;9.00;99.90;;;;;;5106218;28;19957;-70
2023/05/01 00:59:59;;;;;;;;;;;9.00;99.90;;;;;;5106845;28;19960;-71
2023/05/01 01:02:26;;;;;;;;;;;9.00;99.90;;;;;;5106706;28;19920;-70
2023/05/01 01:04:53;;;;;;;;;;;8.90;99.90;;;;;;5106762;28;19927;-70
2023/05/01 01:07:23;;;;;;;;;;;8.90;99.90;;;;;;5105676;28;20058;-69
2023/05/01 01:09:55;;;;;;;;;;;8.90;99.90;;;;;;5106893;28;19955;-69
2023/05/01 01:12:25;;;;;;;;;;;8.80;99.90;;;;;;5106294;28;20212;-69
2023/05/01 01:14:55;;;;;;;;;;;8.80;99.90;;;;;;5106523;28;20112;-70
2023/05/01 01:17:28;;;;;;;;;;;8.80;99.90;;;;;;5104034;28;19962;-70
2023/05/01 01:20:13;;;;;;;;;;;8.70;99.90;;;;;;5085907;28;19920;-70
2023/05/01 01:22:43;;;;;;;;;;;8.70;99.90;;;;;;5086100;28;19920;-70
2023/05/01 01:25:25;;;;;;;;;;;8.70;99.90;;;;;;5086071;28;20098;-69
2023/05/01 01:28:06;;;;;;;;;;;8.60;99.90;;;;;;5085029;28;19920;-70
2023/05/01 01:30:47;;;;;;;;;;;8.60;99.90;;;;;;5086056;28;19921;-69
2023/05/01 01:33:20;;;;;;;;;;;8.60;99.90;;;;;;5085990;28;19920;-69
2023/05/01 01:35:53;;;;;;;;;;;8.60;99.90;;;;;;5085720;28;19956;-70
2023/05/01 01:38:21;;;;;;;;;;;8.60;99.90;;;;;;5085468;28;20239;-69
2023/05/01 01:40:53;;;;;;;;;;;8.50;99.90;;;;;;5085887;28;19920;-70
2023/05/01 01:43:20;;;;;;;;;;;8.50;99.90;;;;;;5085754;28;19958;-71
2023/05/01 01:45:48;;;;;;;;;;;8.60;99.90;;;;;;5085130;28;19920;-70
2023/05/01 01:48:17;;;;;;;;;;;8.60;99.90;;;;;;5098217;28;20333;-70
2023/05/01 01:50:45;;;;;;;;;;;8.60;99.90;;;;;;5105988;28;19920;-69
2023/05/01 01:53:16;;;;;;;;;;;8.60;99.90;;;;;;5105852;28;19924;-70
2023/05/01 01:55:44;;;;;;;;;;;8.50;99.90;;;;;;5105239;28;20204;-71
2023/05/01 01:58:11;;;;;;;;;;;8.50;99.90;;;;;;5105578;28;19927;-70
2023/05/01 02:00:40;;;;;;;;;;;8.50;99.90;;;;;;5105599;28;19920;-69
2023/05/01 02:03:08;;;;;;;;;;;8.50;99.90;;;;;;5104359;28;19920;-70
2023/05/01 02:05:36;;;;;;;;;;;8.50;99.90;;;;;;5105251;28;19926;-70
2023/05/01 02:08:04;;;;;;;;;;;8.40;99.90;;;;;;5105091;28;19920;-69
2023/05/01 02:10:32;;;;;;;;;;;8.40;99.90;;;;;;5105431;28;19920;-71
2023/05/01 02:13:00;;;;;;;;;;;8.30;99.90;;;;;;5105716;28;19924;-69
2023/05/01 02:15:27;;;;;;;;;;;8.20;99.90;;;;;;5105489;28;19924;-69
2023/05/01 02:17:54;;;;;;;;;;;8.20;99.90;;;;;;5105252;28;19942;-70
2023/05/01 02:20:21;;;;;;;;;;;8.20;99.90;;;;;;5105489;28;20208;-71
2023/05/01 02:22:48;;;;;;;;;;;8.20;99.90;;;;;;5105184;28;19920;-70
2023/05/01 02:25:16;;;;;;;;;;;8.20;99.90;;;;;;5105075;28;19920;-69
2023/05/01 02:27:47;;;;;;;;;;;8.10;99.90;;;;;;5104571;28;19920;-69
2023/05/01 02:30:13;;;;;;;;;;;8.00;99.90;;;;;;5104773;28;20258;-70
2023/05/01 02:32:40;;;;;;;;;;;8.00;99.90;;;;;;5104735;28;19928;-70
2023/05/01 02:35:07;;;;;;;;;;;8.00;99.90;;;;;;5100398;28;19920;-70
2023/05/01 02:37:34;;;;;;;;;;;7.90;99.90;;;;;;5083791;28;20180;-70
2023/05/01 02:40:01;;;;;;;;;;;7.90;99.90;;;;;;5084548;28;19927;-68
2023/05/01 02:42:28;;;;;;;;;;;7.90;99.90;;;;;;5084547;28;19920;-70
2023/05/01 02:44:57;;;;;;;;;;;7.90;99.90;;;;;;5084476;28;19927;-69
2023/05/01 02:47:26;;;;;;;;;;;7.80;99.90;;;;;;5083633;28;20208;-70
2023/05/01 02:49:52;;;;;;;;;;;7.80;99.90;;;;;;5084532;28;19921;-69
2023/05/01 02:52:19;;;;;;;;;;;7.80;99.90;;;;;;5084391;28;19983;-69
2023/05/01 02:54:46;;;;;;;;;;;7.80;99.90;;;;;;5084311;28;19927;-70
2023/05/01 02:57:12;;;;;;;;;;;7.70;99.90;;;;;;5083747;28;19921;-70
2023/05/01 02:59:40;;;;;;;;;;;7.70;99.90;;;;;;5084033;28;19952;-70
2023/05/01 03:02:08;;;;;;;;;;;7.70;99.90;;;;;;5083892;28;20093;-69
2023/05/01 03:04:34;;;;;;;;;;;7.60;99.90;;;;;;5084194;28;19984;-70
2023/05/01 03:07:01;;;;;;;;;;;7.60;99.90;;;;;;5083467;28;19932;-70
2023/05/01 03:09:28;;;;;;;;;;;7.60;99.90;;;;;;5084088;28;20180;-69
2023/05/01 03:11:54;;;;;;;;;;;7.60;99.90;;;;;;5083825;28;19956;-70
2023/05/01 03:14:21;;;;;;;;;;;7.60;99.90;;;;;;5083833;28;19974;-71
2023/05/01 03:16:48;;;;;;;;;;;7.60;99.90;;;;;;5083251;28;19987;-70
2023/05/01 03:19:16;;;;;;;;;;;7.50;99.90;;;;;;5084066;28;20177;-71
2023/05/01 03:21:42;;;;;;;;;;;7.50;99.90;;;;;;5083529;28;19943;-70
2023/05/01 03:24:09;;;;;;;;;;;7.50;99.90;;;;;;5083928;28;19927;-69
2023/05/01 03:26:36;;;;;;;;;;;7.50;99.90;;;;;;5083146;28;19951;-70
2023/05/01 03:29:03;;;;;;;;;;;7.50;99.90;;;;;;5083970;28;19978;-70
2023/05/01 03:31:29;;;;;;;;;;;7.40;99.90;;;;;;5083762;28;20109;-70
2023/05/01 03:33:56;;;;;;;;;;;7.50;99.90;;;;;;5083867;28;19987;-70
2023/05/01 03:36:24;;;;;;;;;;;7.50;99.90;;;;;;5089876;28;19959;-71
2023/05/01 03:38:51;;;;;;;;;;;7.50;99.90;;;;;;5103912;28;19966;-70
2023/05/01 03:41:18;;;;;;;;;;;7.40;99.90;;;;;;5103833;28;19958;-71
2023/05/01 03:43:44;;;;;;;;;;;7.40;99.90;;;;;;5103598;28;19983;-69
2023/05/01 03:46:11;;;;;;;;;;;7.40;99.90;;;;;;5103121;28;19921;-69
2023/05/01 03:48:37;;;;;;;;;;;7.30;99.90;;;;;;5103730;28;19959;-70
2023/05/01 03:51:04;;;;;;;;;;;7.30;99.90;;;;;;5103885;28;19952;-70
2023/05/01 03:53:32;;;;;;;;;;;7.20;99.90;;;;;;5103446;28;20208;-70
2023/05/01 03:55:59;;;;;;;;;;;7.20;99.90;;;;;;5103069;28;19960;-69
2023/05/01 03:58:26;;;;;;;;;;;7.20;99.90;;;;;;5103575;28;19955;-70
2023/05/01 04:00:55;;;;;;;;;;;7.20;99.90;;;;;;5103690;28;19920;-70
2023/05/01 04:03:22;;;;;;;;;;;7.20;99.90;;;;;;5103675;28;19920;-69
2023/05/01 04:05:48;;;;;;;;;;;7.30;99.90;;;;;;5103008;28;19966;-71
2023/05/01 04:08:15;;;;;;;;;;;7.20;99.90;;;;;;5103481;28;19955;-69
2023/05/01 04:10:43;;;;;;;;;;;7.20;99.90;;;;;;5103738;28;19979;-70
2023/05/01 04:13:10;;;;;;;;;;;7.20;99.90;;;;;;5103726;28;20111;-70
2023/05/01 04:15:37;;;;;;;;;;;7.20;99.90;;;;;;5103322;28;19920;-72
2023/05/01 04:18:04;;;;;;;;;;;7.20;99.90;;;;;;5103216;28;19977;-70
2023/05/01 04:20:31;;;;;;;;;;;7.20;99.90;;;;;;5103507;28;20349;-70
2023/05/01 04:22:58;;;;;;;;;;;7.10;99.90;;;;;;5098752;28;19920;-70
2023/05/01 04:25:25;;;;;;;;;;;7.20;99.90;;;;;;5083048;28;19962;-70
2023/05/01 04:27:53;;;;;;;;;;;7.10;99.90;;;;;;5086167;28;19920;-69
2023/05/01 04:30:19;;;;;;;;;;;7.10;99.90;;;;;;5086872;28;19927;-69
2023/05/01 04:32:46;;;;;;;;;;;7.10;99.90;;;;;;5087206;28;19956;-69
2023/05/01 04:35:12;;;;;;;;;;;7.00;99.90;;;;;;5087077;28;19979;-74
2023/05/01 04:37:39;;;;;;;;;;;7.00;99.90;;;;;;5085968;28;19956;-69
2023/05/01 04:40:06;;;;;;;;;;;7.00;99.90;;;;;;5086936;28;19927;-69
2023/05/01 04:42:33;;;;;;;;;;;6.90;99.90;;;;;;5086767;28;19962;-69
2023/05/01 04:45:02;;;;;;;;;;;7.00;99.90;;;;;;5086935;28;19920;-70
2023/05/01 04:47:29;;;;;;;;;;;7.00;99.90;;;;;;5086097;28;19920;-71
2023/05/01 04:49:56;;;;;;;;;;;7.00;99.90;;;;;;5086670;28;19920;-70
2023/05/01 04:52:23;;;;;;;;;;;7.10;99.90;;;;;;5086164;28;20227;-71
2023/05/01 04:54:50;;;;;;;;;;;7.10;99.90;;;;;;5086518;28;19979;-71
2023/05/01 04:57:16;;;;;;;;;;;7.20;99.90;;;;;;5085984;28;19955;-69
2023/05/01 04:59:43;;;;;;;;;;;7.20;99.90;;;;;;5086488;28;20399;-70
2023/05/01 05:02:11;;;;;;;;;;;7.30;99.90;;;;;;5086516;28;19921;-70
2023/05/01 05:04:37;;;;;;;;;;;7.30;99.90;;;;;;5086468;28;20115;-70
2023/05/01 05:07:04;;;;;;;;;;;7.30;99.90;;;;;;5085498;28;19984;-70
2023/05/01 05:09:30;;;;;;;;;;;7.40;99.90;;;;;;5086446;28;20005;-70
2023/05/01 05:11:57;;;;;;;;;;;7.40;99.90;;;;;;5086071;28;19920;-69
2023/05/01 05:14:24;;;;;;;;;;;7.50;99.90;;;;;;5086069;28;19962;-69
2023/05/01 05:16:50;;;;;;;;;;;7.60;99.90;;;;;;5085393;28;19956;-70
2023/05/01 05:19:18;;;;;;;;;;;7.60;99.90;;;;;;5085259;28;19920;-71
2023/05/01 05:21:45;;;;;;;;;;;7.70;99.90;;;;;;5099775;28;19927;-71
2023/05/01 05:24:12;;;;;;;;;;;7.70;99.90;;;;;;5106432;28;19987;-69
2023/05/01 05:26:38;;;;;;;;;;;7.80;99.90;;;;;;5105262;28;20230;-70
2023/05/01 05:29:06;;;;;;;;;;;7.80;99.90;;;;;;5105926;28;19952;-69
2023/05/01 05:31:32;;;;;;;;;;;7.90;99.90;;;;;;5105950;28;20093;-69
2023/05/01 05:33:59;;;;;;;;;;;7.90;99.90;;;;;;5106300;28;19952;-69
2023/05/01 05:36:28;;;;;;;;;;;8.00;99.90;;;;;;5105466;28;19986;-71
2023/05/01 05:38:55;;;;;;;;;;;8.00;99.90;;;;;;5105777;28;20211;-71
2023/05/01 05:41:22;;;;;;;;;;;8.10;99.90;;;;;;5106068;28;20140;-71
2023/05/01 05:43:49;;;;;;;;;;;8.20;99.90;;;;;;5106073;28;20146;-70
2023/05/01 05:46:15;;;;;;;;;;;8.30;99.90;;;;;;5105766;28;19986;-70
2023/05/01 05:48:42;;;;;;;;;;;8.30;99.90;;;;;;5105953;28;19961;-70
2023/05/01 05:51:09;;;;;;;;;;;8.40;99.90;;;;;;5105972;28;20012;-71
2023/05/01 05:53:37;;;;;;;;;;;8.40;99.90;;;;;;5105980;28;20097;-70
2023/05/01 05:56:03;;;;;;;;;;;8.40;99.90;;;;;;5105278;28;20259;-69
2023/05/01 05:58:30;;;;;;;;;;;8.40;99.90;;;;;;5105693;28;19973;-69
2023/05/01 06:00:57;;;;;;;;;;;8.50;99.90;;;;;;5105436;28;20272;-69
2023/05/01 06:03:23;;;;;;;;;;;8.50;99.90;;;;;;5105796;28;19951;-69
2023/05/01 06:05:50;;;;;;;;;;;8.50;99.90;;;;;;5105264;28;19920;-70
2023/05/01 06:08:17;;;;;;;;;;;8.50;99.90;;;;;;5097253;28;19963;-69
2023/05/01 06:10:45;;;;;;;;;;;8.50;99.90;;;;;;5084910;28;20260;-70
2023/05/01 06:13:12;;;;;;;;;;;8.60;99.90;;;;;;5084854;28;19987;-70
2023/05/01 06:15:39;;;;;;;;;;;8.60;99.90;;;;;;5084959;28;20086;-71
2023/05/01 06:18:06;;;;;;;;;;;8.70;99.90;;;;;;5083920;28;20101;-69
2023/05/01 06:20:33;;;;;;;;;;;8.70;99.90;;;;;;5085027;28;19959;-69
2023/05/01 06:22:59;;;;;;;;;;;8.80;99.90;;;;;;5103836;28;19979;-71
2023/05/01 06:25:26;;;;;;;;;;;8.80;99.90;;;;;;5105095;28;19927;-70
2023/05/01 06:27:54;;;;;;;;;;;8.90;99.90;;;;;;5104880;28;20066;-71
2023/05/01 06:30:20;;;;;;;;;;;9.00;99.90;;;;;;5105091;28;19920;-69
2023/05/01 06:32:47;;;;;;;;;;;9.10;99.90;;;;;;5104717;28;19920;-69
2023/05/01 06:35:14;;;;;;;;;;;9.20;99.90;;;;;;5105023;28;19987;-69
2023/05/01 06:37:40;;;;;;;;;;;9.20;99.90;;;;;;5104399;28;19948;-70
2023/05/01 06:40:08;;;;;;;;;;;9.30;99.90;;;;;;5104733;28;20021;-70
2023/05/01 06:42:35;;;;;;;;;;;9.40;99.90;;;;;;5104635;28;19999;-70
2023/05/01 06:45:03;;;;;;;;;;;9.40;99.90;;;;;;5104185;28;19920;-70
2023/05/01 06:47:30;;;;;;;;;;;9.50;99.90;;;;;;5083922;28;19920;-72
2023/05/01 06:49:56;;;;;;;;;;;9.50;99.90;;;;;;5083854;28;19988;-71
2023/05/01 06:52:23;;;;;;;;;;;9.60;99.90;;;;;;5084432;28;19987;-70
2023/05/01 06:54:49;;;;;;;;;;;9.60;99.90;;;;;;5084340;28;19974;-70
2023/05/01 06:57:16;;;;;;;;;;;9.60;99.90;;;;;;5083666;28;19987;-69
2023/05/01 06:59:43;;;;;;;;;;;9.60;99.90;;;;;;5084288;28;19958;-69
2023/05/01 07:02:11;;;;;;;;;;;9.70;99.90;;;;;;5084283;28;19955;-70
2023/05/01 07:04:37;;;;;;;;;;;9.70;99.90;;;;;;5083801;28;20228;-70
2023/05/01 07:07:04;;;;;;;;;;;9.70;99.90;;;;;;5083134;28;19979;-70
2023/05/01 07:09:31;;;;;;;;;;;9.70;99.90;;;;;;5084456;28;19967;-69
2023/05/01 07:11:58;;;;;;;;;;;9.80;99.90;;;;;;5084334;28;19952;-70
2023/05/01 07:14:25;;;;;;;;;;;9.80;99.90;;;;;;5083979;28;19927;-70
2023/05/01 07:16:51;;;;;;;;;;;9.80;99.90;;;;;;5083232;28;19924;-70
2023/05/01 07:19:19;;;;;;;;;;;9.90;99.90;;;;;;5081558;28;19920;-70
2023/05/01 07:21:46;;;;;;;;;;;9.90;99.90;;;;;;5083826;28;19992;-69
2023/05/01 07:24:12;;;;;;;;;;;9.90;99.90;;;;;;5083671;28;19983;-70
2023/05/01 07:26:39;;;;;;;;;;;10.00;99.90;;;;;;5083604;28;19992;-70
2023/05/01 07:29:06;;;;;;;;;;;10.00;99.90;;;;;;5083636;28;19921;-70
2023/05/01 07:31:32;;;;;;;;;;;10.10;99.90;;;;;;5083837;28;19966;-69
2023/05/01 07:33:59;;;;;;;;;;;10.10;99.90;;;;;;5083408;28;20280;-71
2023/05/01 07:36:27;;;;;;;;;;;10.20;99.90;;;;;;5083094;28;19955;-70
2023/05/01 07:38:54;;;;;;;;;;;10.20;99.90;;;;;;5083506;28;19921;-69
2023/05/01 07:41:21;;;;;;;;;;;10.20;99.90;;;;;;5083407;28;19921;-70
2023/05/01 07:43:48;;;;;;;;;;;10.20;99.90;;;;;;5083611;28;19928;-69
2023/05/01 07:46:14;;;;;;;;;;;10.30;99.90;;;;;;5083138;28;19926;-70
2023/05/01 07:48:41;;;;;;;;;;;10.30;99.90;;;;;;5083329;28;19983;-69
2023/05/01 07:51:08;;;;;;;;;;;10.30;99.90;;;;;;5087275;28;19974;-69
2023/05/01 07:53:36;;;;;;;;;;;10.40;99.90;;;;;;5103139;28;19920;-69
2023/05/01 07:56:06;;;;;;;;;;;10.50;99.90;;;;;;5102686;28;19928;-69
2023/05/01 07:58:33;;;;;;;;;;;10.50;99.90;;;;;;5097940;28;20183;-69
2023/05/01 08:01:00;;;;;;;;;;;10.60;99.90;;;;;;5103281;28;20220;-69
2023/05/01 08:03:27;;;;;;;;;;;10.60;99.90;;;;;;5106363;28;19979;-69
2023/05/01 08:05:54;;;;;;;;;;;10.60;99.90;;;;;;5106518;28;19928;-69
2023/05/01 08:08:20;;;;;;;;;;;10.60;99.90;;;;;;5107188;28;20193;-69
2023/05/01 08:10:48;;;;;;;;;;;10.70;99.90;;;;;;5106974;28;20212;-69
2023/05/01 08:13:15;;;;;;;;;;;10.70;99.90;;;;;;5107746;28;19920;-70
2023/05/01 08:15:42;;;;;;;;;;;10.70;99.90;;;;;;5106825;28;19927;-71
2023/05/01 08:18:09;;;;;;;;;;;10.70;99.90;;;;;;5106988;28;19943;-70
2023/05/01 08:20:35;;;;;;;;;;;10.70;99.90;;;;;;5107551;28;19987;-70
2023/05/01 08:23:02;;;;;;;;;;;10.80;99.90;;;;;;5106865;28;19987;-69
2023/05/01 08:25:30;;;;;;;;;;;10.80;99.90;;;;;;5107242;28;19927;-71
2023/05/01 08:27:58;;;;;;;;;;;10.80;99.90;;;;;;5105837;28;20220;-68
2023/05/01 08:30:25;;;;;;;;;;;10.80;99.90;;;;;;5100480;28;19920;-69
2023/05/01 08:32:51;;;;;;;;;;;10.90;99.90;;;;;;5107235;28;20394;-69
2023/05/01 08:35:18;;;;;;;;;;;10.90;99.90;;;;;;5107147;28;19958;-68
2023/05/01 08:37:44;;;;;;;;;;;10.90;99.90;;;;;;5106481;28;19983;-71
2023/05/01 08:40:11;;;;;;;;;;;10.90;99.90;;;;;;5107388;28;19926;-69
2023/05/01 08:42:38;;;;;;;;;;;10.90;99.90;;;;;;5104151;28;19920;-70
2023/05/01 08:45:07;;;;;;;;;;;10.90;99.90;;;;;;5086913;28;20151;-69
2023/05/01 08:47:37;;;;;;;;;;;10.90;99.90;;;;;;5095885;28;19921;-68
2023/05/01 08:50:04;;;;;;;;;;;10.90;99.90;;;;;;5105638;28;19920;-68
2023/05/01 08:52:31;;;;;;;;;;;10.90;99.90;;;;;;5106767;28;20000;-68
2023/05/01 08:55:00;;;;;;;;;;;10.90;99.90;;;;;;5105391;28;19955;-68
2023/05/01 08:57:27;;;;;;;;;;;11.00;99.90;;;;;;5104828;28;19920;-71
2023/05/01 08:59:56;;;;;;;;;;;10.90;99.90;;;;;;5106035;28;20171;-68
2023/05/01 09:02:24;;;;;;;;;;;10.90;99.90;;;;;;5106564;28;19920;-68
2023/05/01 09:04:51;;;;;;;;;;;11.00;99.90;;;;;;5105950;28;20413;-68
2023/05/01 09:07:18;;;;;;;;;;;11.00;99.90;;;;;;5105688;28;19984;-69
2023/05/01 09:09:45;;;;;;;;;;;10.90;99.90;;;;;;5106120;28;19951;-68
2023/05/01 09:12:16;;;;;;;;;;;10.90;99.90;;;;;;5105896;28;19979;-68
2023/05/01 09:14:44;;;;;;;;;;;10.90;99.90;;;;;;5105764;28;20142;-68
2023/05/01 09:17:11;;;;;;;;;;;10.90;99.90;;;;;;5105508;28;20077;-68
2023/05/01 09:19:39;;;;;;;;;;;10.90;99.90;;;;;;5103401;28;19987;-68
2023/05/01 09:22:06;;;;;;;;;;;10.80;99.90;;;;;;5105987;28;19924;-68
2023/05/01 09:24:33;;;;;;;;;;;10.80;99.90;;;;;;5105756;28;19929;-68
2023/05/01 09:27:00;;;;;;;;;;;10.80;99.90;;;;;;5105189;28;19920;-68
2023/05/01 09:29:37;;;;;;;;;;;10.80;99.90;;;;;;5105533;28;19920;-68
2023/05/01 09:32:12;;;;;;;;;;;10.80;99.90;;;;;;5103348;28;19959;-68
2023/05/01 09:34:40;;;;;;;;;;;10.80;99.90;;;;;;5105538;28;19983;-69
2023/05/01 09:37:07;;;;;;;;;;;10.70;99.90;;;;;;5105028;28;19942;-70
2023/05/01 09:39:34;;;;;;;;;;;10.80;99.90;;;;;;5105687;28;20111;-68
2023/05/01 09:42:02;;;;;;;;;;;10.80;99.90;;;;;;5105316;28;20229;-67
2023/05/01 09:44:28;;;;;;;;;;;10.80;99.90;;;;;;5105106;28;20283;-69
2023/05/01 09:46:55;;;;;;;;;;;10.80;99.90;;;;;;5105006;28;19979;-68
2023/05/01 09:49:43;;;;;;;;;;;10.70;99.90;;;;;;5105444;28;19924;-68
2023/05/01 09:52:12;;;;;;;;;;;10.70;99.90;;;;;;5105165;28;19969;-69
2023/05/01 09:54:38;;;;;;;;;;;10.70;99.90;;;;;;5105766;28;19965;-69
2023/05/01 09:57:05;;;;;;;;;;;10.70;99.90;;;;;;5104900;28;19990;-70
2023/05/01 09:59:33;;;;;;;;;;;10.70;99.90;;;;;;5105415;28;19920;-68
2023/05/01 10:02:00;;;;;;;;;;;10.80;99.90;;;;;;5100768;28;20151;-69
2023/05/01 10:04:31;;;;;;;;;;;10.80;99.90;;;;;;5105484;28;19974;-71
2023/05/01 10:06:58;;;;;;;;;;;10.80;99.90;;;;;;5104709;28;19983;-69
2023/05/01 10:09:29;;;;;;;;;;;10.80;99.90;;;;;;5105418;28;19920;-69
2023/05/01 10:11:57;;;;;;;;;;;10.90;99.90;;;;;;5097172;28;20246;-70
2023/05/01 10:14:25;;;;;;;;;;;10.90;99.90;;;;;;5084962;28;20254;-70
2023/05/01 10:16:52;;;;;;;;;;;11.00;99.90;;;;;;5102441;28;19920;-70
2023/05/01 10:19:19;;;;;;;;;;;11.00;99.90;;;;;;5102700;28;19921;-69
2023/05/01 10:21:46;;;;;;;;;;;11.00;99.90;;;;;;5105069;28;20119;-68
2023/05/01 10:24:15;;;;;;;;;;;11.00;99.90;;;;;;5104303;28;19962;-68
2023/05/01 10:26:43;;;;;;;;;;;11.00;99.90;;;;;;5104312;28;19961;-70
2023/05/01 10:29:10;;;;;;;;;;;11.10;99.90;;;;;;5104833;28;20166;-68
2023/05/01 10:31:37;;;;;;;;;;;11.00;99.90;;;;;;5105156;28;19987;-69
2023/05/01 10:34:04;;;;;;;;;;;11.00;99.90;;;;;;5104670;28;19920;-69
2023/05/01 10:36:32;;;;;;;;;;;11.10;99.90;;;;;;5083680;28;19920;-70
2023/05/01 10:38:59;;;;;;;;;;;11.10;99.90;;;;;;5084633;28;19921;-70
2023/05/01 10:41:44;;;;;;;;;;;11.10;99.90;;;;;;5084711;28;19956;-69
2023/05/01 10:44:22;;;;;;;;;;;11.10;99.90;;;;;;5084407;28;19920;-69
2023/05/01 10:46:48;;;;;;;;;;;11.10;99.90;;;;;;5083609;28;19920;-70
2023/05/01 10:49:15;;;;;;;;;;;11.10;99.90;;;;;;5084396;28;19955;-69
2023/05/01 10:51:57;;;;;;;;;;;11.10;99.90;;;;;;5084037;28;19924;-70
2023/05/01 10:54:27;;;;;;;;;;;11.20;99.90;;;;;;5084466;28;19962;-70
2023/05/01 10:56:54;;;;;;;;;;;11.20;99.90;;;;;;5091310;28;20338;-69
2023/05/01 10:59:22;;;;;;;;;;;11.30;99.90;;;;;;5084259;28;19962;-70
2023/05/01 11:01:51;;;;;;;;;;;11.30;99.90;;;;;;5081809;28;19921;-69
2023/05/01 11:04:36;;;;;;;;;;;11.30;99.90;;;;;;5084032;28;19920;-69
2023/05/01 11:07:16;;;;;;;;;;;11.30;99.90;;;;;;5083171;28;20147;-69
2023/05/01 11:09:44;;;;;;;;;;;11.40;99.90;;;;;;5084081;28;19958;-70
2023/05/01 11:12:11;;;;;;;;;;;11.40;99.90;;;;;;5083497;28;20130;-69
2023/05/01 11:15:01;;;;;;;;;;;11.40;99.90;;;;;;5092807;28;20901;-68
2023/05/01 11:17:49;;;;;;;;;;;11.40;99.90;;;;;;5097126;28;19920;-69
2023/05/01 11:20:34;;;;;;;;;;;11.50;99.90;;;;;;5083856;28;19921;-69
2023/05/01 11:23:01;;;;;;;;;;;11.50;99.90;;;;;;5083848;28;19920;-70
2023/05/01 11:25:30;;;;;;;;;;;11.60;99.90;;;;;;5083807;28;20185;-69
2023/05/01 11:27:59;;;;;;;;;;;11.60;99.90;;;;;;5080347;28;19977;-70
2023/05/01 11:30:26;;;;;;;;;;;11.70;99.90;;;;;;5083787;28;19921;-68
2023/05/01 11:32:54;;;;;;;;;;;11.60;99.90;;;;;;5083804;28;19963;-70
2023/05/01 11:35:21;;;;;;;;;;;11.70;99.90;;;;;;5091736;28;19951;-68
2023/05/01 11:37:49;;;;;;;;;;;11.80;99.90;;;;;;5100827;28;20103;-68
2023/05/01 11:40:20;;;;;;;;;;;11.80;99.90;;;;;;5102436;28;20089;-73
2023/05/01 11:42:47;;;;;;;;;;;11.80;99.90;;;;;;5098342;28;19921;-70
2023/05/01 11:45:14;;;;;;;;;;;11.70;99.90;;;;;;5103644;28;19920;-70
2023/05/01 11:47:41;;;;;;;;;;;11.80;99.90;;;;;;5102472;28;19983;-69
2023/05/01 11:50:09;;;;;;;;;;;11.90;99.90;;;;;;5103219;28;19984;-67
2023/05/01 11:52:43;;;;;;;;;;;11.90;99.90;;;;;;5102585;28;19920;-69
2023/05/01 11:55:10;;;;;;;;;;;11.90;99.90;;;;;;5102276;28;19983;-68
2023/05/01 11:57:47;;;;;;;;;;;11.80;99.90;;;;;;5103369;28;19927;-68
2023/05/01 12:00:14;;;;;;;;;;;11.80;99.90;;;;;;5103646;28;20166;-67
2023/05/01 12:02:41;;;;;;;;;;;11.90;99.90;;;;;;5103094;28;19920;-69
2023/05/01 12:05:18;;;;;;;;;;;11.80;99.90;;;;;;5102688;28;19920;-68
2023/05/01 12:07:45;;;;;;;;;;;11.90;99.90;;;;;;5101559;28;19942;-68
2023/05/01 12:10:11;;;;;;;;;;;12.00;99.90;;;;;;5103509;28;20155;-67
2023/05/01 12:12:38;;;;;;;;;;;12.10;99.90;;;;;;5103074;28;19920;-68
2023/05/01 12:15:05;;;;;;;;;;;12.10;99.90;;;;;;5086313;28;20230;-68
2023/05/01 12:17:32;;;;;;;;;;;12.10;99.90;;;;;;5082641;28;20094;-68
2023/05/01 12:19:58;;;;;;;;;;;12.20;99.90;;;;;;5083053;28;19920;-69
2023/05/01 12:22:28;;;;;;;;;;;12.30;99.90;;;;;;5096575;28;19951;-69
2023/05/01 12:24:55;;;;;;;;;;;12.40;99.90;;;;;;5102418;28;19920;-69
2023/05/01 12:27:21;;;;;;;;;;;12.50;99.90;;;;;;5102123;28;19948;-69
2023/05/01 12:29:48;;;;;;;;;;;12.50;99.90;;;;;;5103523;28;19927;-71
2023/05/01 12:32:15;;;;;;;;;;;12.60;99.90;;;;;;5103385;28;19983;-69
2023/05/01 12:34:42;;;;;;;;;;;12.60;99.90;;;;;;5087112;28;19928;-68
2023/05/01 12:37:09;;;;;;;;;;;12.60;99.90;;;;;;5082521;28;19987;-70
2023/05/01 12:39:38;;;;;;;;;;;12.60;99.90;;;;;;5082873;28;19920;-69
2023/05/01 12:42:11;;;;;;;;;;;12.60;99.90;;;;;;5081979;28;19991;-69
2023/05/01 12:44:38;;;;;;;;;;;12.60;99.90;;;;;;5082146;28;20015;-70
2023/05/01 12:47:07;;;;;;;;;;;12.60;99.90;;;;;;5077351;28;19934;-69
2023/05/01 12:49:35;;;;;;;;;;;12.70;99.90;;;;;;5090082;28;20398;-70
2023/05/01 12:52:03;;;;;;;;;;;12.70;99.90;;;;;;5105717;28;19962;-69
2023/05/01 12:54:31;;;;;;;;;;;12.70;99.90;;;;;;5091675;28;19920;-69
2023/05/01 12:57:08;;;;;;;;;;;12.80;99.90;;;;;;5084288;28;19987;-69
2023/05/01 12:59:35;;;;;;;;;;;12.80;99.90;;;;;;5085690;28;19991;-71
2023/05/01 13:02:03;;;;;;;;;;;12.80;99.90;;;;;;5085485;28;19951;-69
2023/05/01 13:04:30;;;;;;;;;;;12.80;99.90;;;;;;5099097;28;19927;-69
2023/05/01 13:06:57;;;;;;;;;;;12.70;99.90;;;;;;5104094;28;19938;-70
2023/05/01 13:09:25;;;;;;;;;;;12.70;99.90;;;;;;5089849;28;20023;-71
2023/05/01 13:11:56;;;;;;;;;;;12.80;99.90;;;;;;5084007;28;19960;-70
2023/05/01 13:14:24;;;;;;;;;;;13.00;99.90;;;;;;5082251;28;19929;-69
2023/05/01 13:16:51;;;;;;;;;;;13.10;99.90;;;;;;5082564;28;19955;-70
2023/05/01 13:19:25;;;;;;;;;;;13.20;99.90;;;;;;5082398;28;19928;-71
2023/05/01 13:21:52;;;;;;;;;;;13.10;99.90;;;;;;5091728;28;20026;-71
2023/05/01 13:24:18;;;;;;;;;;;13.10;99.90;;;;;;5100501;28;19928;-70
2023/05/01 13:26:45;;;;;;;;;;;13.20;99.90;;;;;;5104092;28;19934;-69
2023/05/01 13:29:13;;;;;;;;;;;13.30;99.90;;;;;;5097029;28;19920;-69
2023/05/01 13:31:44;;;;;;;;;;;13.30;99.90;;;;;;5086084;28;19926;-71
2023/05/01 13:34:11;;;;;;;;;;;13.40;99.90;;;;;;5086075;28;19921;-69
2023/05/01 13:36:39;;;;;;;;;;;13.50;99.90;;;;;;5084970;28;19920;-69
2023/05/01 13:39:06;;;;;;;;;;;13.60;99.90;;;;;;5091497;28;19947;-71
2023/05/01 13:41:34;;;;;;;;;;;13.70;99.90;;;;;;5106080;28;19986;-71
2023/05/01 13:44:00;;;;;;;;;;;13.90;99.90;;;;;;5105956;28;19920;-71
2023/05/01 13:46:28;;;;;;;;;;;13.90;99.90;;;;;;5104912;28;20149;-70
2023/05/01 13:48:57;;;;;;;;;;;14.00;99.90;;;;;;5106001;28;19927;-72
2023/05/01 13:51:25;;;;;;;;;;;14.00;99.90;;;;;;5104793;28;19926;-72
2023/05/01 13:53:51;;;;;;;;;;;13.90;99.90;;;;;;5105867;28;19920;-69
2023/05/01 13:56:18;;;;;;;;;;;14.00;99.90;;;;;;5104988;28;20204;-69
2023/05/01 13:58:45;;;;;;;;;;;13.90;99.90;;;;;;5104241;28;20234;-70
2023/05/01 14:01:14;;;;;;;;;;;13.80;99.90;;;;;;5105465;28;19942;-71
2023/05/01 14:03:41;;;;;;;;;;;13.70;99.90;;;;;;5105541;28;19920;-69
2023/05/01 14:06:10;;;;;;;;;;;13.70;99.90;;;;;;5105079;28;19920;-72
2023/05/01 14:08:37;;;;;;;;;;;13.70;99.90;;;;;;5105398;28;19962;-69
2023/05/01 14:11:04;;;;;;;;;;;13.60;99.90;;;;;;5105172;28;19996;-70
2023/05/01 14:13:32;;;;;;;;;;;13.70;99.90;;;;;;5103011;28;19991;-69
2023/05/01 14:15:59;;;;;;;;;;;13.70;99.90;;;;;;5097521;28;19921;-69
2023/05/01 14:18:25;;;;;;;;;;;13.80;99.90;;;;;;5084894;28;19921;-69
2023/05/01 14:20:52;;;;;;;;;;;13.90;99.90;;;;;;5084980;28;19959;-70
2023/05/01 14:23:26;;;;;;;;;;;14.00;99.90;;;;;;5082768;28;19987;-69
2023/05/01 14:25:56;;;;;;;;;;;14.10;99.90;;;;;;5084333;28;19926;-71
2023/05/01 14:28:24;;;;;;;;;;;14.00;99.90;;;;;;5084551;28;19924;-70